Time;durP1;ratioP1;P1;durP2;ratioP2;P2;SDS_P1;SDS_P2;PMS_P1;PMS_P2;Temp;Humidity;BMP_temperature;BMP_pressure;BME280_temperature;BME280_humidity;BME280_pressure;Samples;Min_cycle;Max_cycle;Signal;HPM_P1;HPM_P2
2021/09/17 00:01:25;;;;;;;7.95;6.22;;;;;;;15.28;57.00;100323.69;1600856;87;21120;-54
2021/09/17 00:03:51;;;;;;;8.95;6.95;;;;;;;15.27;57.02;100327.41;1624878;86;21072;-53
2021/09/17 00:06:17;;;;;;;10.10;6.42;;;;;;;15.26;57.20;100328.45;1632262;86;21098;-53
2021/09/17 00:08:43;;;;;;;10.28;6.30;;;;;;;15.25;56.97;100322.77;1632420;86;21038;-52
2021/09/17 00:11:11;;;;;;;8.23;6.67;;;;;;;15.25;57.02;100326.80;1640294;85;21098;-53
2021/09/17 00:13:39;;;;;;;11.57;7.12;;;;;;;15.25;56.89;100321.95;1653363;85;21132;-53
2021/09/17 00:16:08;;;;;;;7.95;6.42;;;;;;;15.26;56.74;100331.67;1601351;88;21108;-52
2021/09/17 00:18:36;;;;;;;9.00;6.30;;;;;;;15.25;56.68;100326.80;1623241;86;21038;-53
2021/09/17 00:21:02;;;;;;;15.95;6.75;;;;;;;15.27;56.64;100329.27;1632958;86;21122;-52
2021/09/17 00:23:29;;;;;;;10.68;6.78;;;;;;;15.24;56.69;100322.48;1593305;86;21050;-51
2021/09/17 00:25:55;;;;;;;8.18;7.30;;;;;;;15.24;56.60;100319.80;1638513;86;21016;-52
2021/09/17 00:28:20;;;;;;;10.25;7.22;;;;;;;15.21;56.55;100312.17;1633048;86;21120;-55
2021/09/17 00:30:47;;;;;;;10.05;7.03;;;;;;;15.19;56.64;100316.95;1618593;87;21079;-54
2021/09/17 00:33:13;;;;;;;9.88;6.80;;;;;;;15.14;56.48;100312.25;1619291;86;21102;-53
2021/09/17 00:35:39;;;;;;;10.40;6.53;;;;;;;15.12;56.46;100313.48;1618017;86;21606;-53
2021/09/17 00:38:05;;;;;;;10.10;6.47;;;;;;;15.09;56.45;100306.70;1628093;86;21846;-53
2021/09/17 00:40:34;;;;;;;15.45;7.00;;;;;;;15.09;56.38;100305.89;1573968;89;21085;-53
2021/09/17 00:43:02;;;;;;;9.60;6.92;;;;;;;15.08;56.18;100306.39;1606846;88;21181;-53
2021/09/17 00:45:29;;;;;;;10.68;7.40;;;;;;;15.10;56.13;100300.80;1590211;89;21097;-54
2021/09/17 00:47:57;;;;;;;16.12;7.87;;;;;;;15.11;55.93;100300.59;1651209;86;21113;-53
2021/09/17 00:50:27;;;;;;;9.33;7.10;;;;;;;15.11;55.76;100297.91;1639727;86;21674;-55
2021/09/17 00:52:53;;;;;;;10.38;7.00;;;;;;;15.10;55.71;100291.41;1633573;86;21374;-54
2021/09/17 00:55:21;;;;;;;9.50;6.22;;;;;;;15.11;55.64;100291.73;1608987;88;21675;-53
2021/09/17 00:57:50;;;;;;;7.85;7.05;;;;;;;15.09;55.25;100285.23;1629271;87;21130;-54
2021/09/17 01:00:18;;;;;;;6.80;5.92;;;;;;;15.12;55.33;100281.27;1625133;86;21193;-55
2021/09/17 01:02:45;;;;;;;8.83;6.70;;;;;;;15.14;54.95;100279.19;1633136;86;21601;-54
2021/09/17 01:05:12;;;;;;;9.58;6.78;;;;;;;15.15;54.70;100272.27;1621167;86;21080;-53
2021/09/17 01:07:43;;;;;;;7.62;5.90;;;;;;;15.19;54.89;100272.64;1631798;86;21481;-55
2021/09/17 01:10:12;;;;;;;7.08;6.08;;;;;;;15.20;54.38;100263.56;1627958;86;21154;-53
2021/09/17 01:12:39;;;;;;;11.08;7.25;;;;;;;15.19;54.01;100261.37;1597691;88;21566;-54
2021/09/17 01:15:09;;;;;;;10.15;6.47;;;;;;;15.21;53.82;100258.48;1635268;86;21158;-54
2021/09/17 01:17:42;;;;;;;7.40;5.50;;;;;;;15.23;53.63;100255.05;1629637;86;21071;-52
2021/09/17 01:20:14;;;;;;;7.75;5.80;;;;;;;15.26;53.42;100252.46;1627312;86;21075;-52
2021/09/17 01:22:42;;;;;;;8.63;5.47;;;;;;;15.27;53.37;100251.41;1615236;86;20988;-55
2021/09/17 01:25:14;;;;;;;9.55;6.75;;;;;;;15.29;53.04;100245.28;1628964;86;21140;-53
2021/09/17 01:27:44;;;;;;;7.53;6.03;;;;;;;15.31;52.82;100244.04;1630904;86;21094;-52
2021/09/17 01:30:13;;;;;;;9.98;6.62;;;;;;;15.33;52.61;100242.45;1636632;86;21502;-54
2021/09/17 01:32:41;;;;;;;8.10;6.42;;;;;;;15.32;52.44;100239.48;1631456;86;21036;-53
2021/09/17 01:35:12;;;;;;;8.83;6.53;;;;;;;15.33;52.35;100236.58;1660168;85;21048;-53
2021/09/17 01:37:41;;;;;;;9.10;6.12;;;;;;;15.32;52.37;100237.61;1661506;85;21010;-54
2021/09/17 01:40:09;;;;;;;13.90;7.50;;;;;;;15.33;52.21;100227.68;1645835;85;22046;-54
2021/09/17 01:42:36;;;;;;;8.48;6.70;;;;;;;15.28;51.86;100227.55;1654594;85;21090;-53
2021/09/17 01:45:04;;;;;;;6.83;5.78;;;;;;;15.31;52.05;100230.62;1655112;85;21116;-55
2021/09/17 01:47:30;;;;;;;7.53;5.97;;;;;;;15.30;52.21;100222.25;1665091;85;21072;-52
2021/09/17 01:49:56;;;;;;;10.45;6.40;;;;;;;15.33;52.16;100231.21;1662888;85;21151;-52
2021/09/17 01:52:23;;;;;;;;;;;;;;;15.32;52.20;100220.16;1669432;85;21139;-53
2021/09/17 01:54:49;;;;;;;6.40;5.53;;;;;;;15.26;51.94;100218.89;1661235;85;20135;-53
2021/09/17 01:57:16;;;;;;;;;;;;;;;15.26;51.94;100218.89;1666928;84;21000;-54
2021/09/17 01:59:42;;;;;;;9.00;5.92;;;;;;;15.26;51.60;100215.69;1662985;85;20140;-54
2021/09/17 02:02:07;;;;;;;8.60;5.58;;;;;;;15.18;51.80;100201.19;1641680;84;21048;-53
2021/09/17 02:04:33;;;;;;;8.85;6.08;;;;;;;15.27;51.79;100211.13;1636661;86;21085;-54
2021/09/17 02:07:01;;;;;;;9.15;6.67;;;;;;;15.31;51.78;100205.11;1631994;86;21098;-54
2021/09/17 02:09:29;;;;;;;9.45;6.35;;;;;;;15.32;51.81;100204.05;1600279;88;21036;-52
2021/09/17 02:11:55;;;;;;;6.55;5.87;;;;;;;15.34;51.26;100197.11;1619821;86;21006;-53
2021/09/17 02:14:23;;;;;;;7.12;5.90;;;;;;;15.36;51.26;100198.52;1625507;86;21178;-53
2021/09/17 02:16:49;;;;;;;9.38;5.58;;;;;;;15.38;51.19;100194.27;1624091;86;21046;-55
2021/09/17 02:19:15;;;;;;;12.43;6.33;;;;;;;15.38;51.31;100188.91;1633559;86;21046;-52
2021/09/17 02:21:41;;;;;;;7.97;5.35;;;;;;;15.40;50.92;100188.16;1636726;86;21018;-54
2021/09/17 02:24:07;;;;;;;7.35;5.97;;;;;;;15.43;50.97;100182.34;1625185;85;21070;-55
2021/09/17 02:26:34;;;;;;;7.47;5.65;;;;;;;15.44;50.62;100181.28;1625837;88;21026;-53
2021/09/17 02:29:00;;;;;;;9.73;6.53;;;;;;;15.46;50.36;100178.38;1626011;88;21011;-55
2021/09/17 02:31:27;;;;;;;5.87;4.83;;;;;;;15.51;50.38;100177.20;1619412;88;21549;-54
2021/09/17 02:33:53;;;;;;;6.97;5.50;;;;;;;15.55;49.90;100173.00;1621854;88;21054;-53
2021/09/17 02:36:19;;;;;;;8.30;4.70;;;;;;;15.56;49.85;100175.47;1627374;88;21043;-53
2021/09/17 02:38:47;;;;;;;8.05;6.10;;;;;;;15.60;49.88;100167.79;1625953;88;21037;-53
2021/09/17 02:41:13;;;;;;;6.30;4.95;;;;;;;15.61;49.79;100162.70;1630731;88;21083;-53
2021/09/17 02:43:40;;;;;;;7.28;5.62;;;;;;;15.63;49.65;100160.60;1622684;88;21133;-52
2021/09/17 02:46:07;;;;;;;8.23;4.87;;;;;;;15.64;49.60;100160.91;1622447;88;21060;-50
2021/09/17 02:48:33;;;;;;;7.92;5.80;;;;;;;15.67;49.39;100156.44;1608628;88;21128;-51
2021/09/17 02:50:59;;;;;;;11.35;4.87;;;;;;;15.67;49.15;100155.09;1628449;88;21166;-50
2021/09/17 02:53:25;;;;;;;9.45;4.87;;;;;;;15.67;49.27;100148.38;1629828;88;21157;-55
2021/09/17 02:55:52;;;;;;;;;;;;;;;15.66;49.12;100149.41;1579036;88;21102;-53
2021/09/17 02:58:20;;;;;;;5.65;4.28;;;;;;;15.68;49.33;100147.84;1643576;85;20231;-55
2021/09/17 03:00:46;;;;;;;7.17;4.50;;;;;;;15.52;49.18;100131.81;1607440;88;21061;-53
2021/09/17 03:03:15;;;;;;;;;;;;;;;15.64;49.22;100141.30;1616276;88;21054;-53
2021/09/17 03:05:40;;;;;;;6.22;4.33;;;;;;;15.66;49.13;100137.32;1619732;88;20102;-52
2021/09/17 03:08:08;;;;;;;6.33;4.83;;;;;;;15.64;49.20;100142.10;1620990;88;21109;-52
2021/09/17 03:10:35;;;;;;;11.45;5.45;;;;;;;15.66;49.13;100138.66;1614140;88;21096;-51
2021/09/17 03:13:02;;;;;;;7.83;5.25;;;;;;;15.69;49.18;100138.22;1668298;86;21077;-50
2021/09/17 03:15:28;;;;;;;9.45;5.83;;;;;;;15.70;49.07;100130.44;1667419;86;21034;-50
2021/09/17 03:17:54;;;;;;;6.62;4.85;;;;;;;15.71;49.25;100135.31;1667172;85;21046;-51
2021/09/17 03:20:21;;;;;;;6.70;4.42;;;;;;;15.73;49.24;100134.56;1672282;85;21101;-51
2021/09/17 03:22:48;;;;;;;6.25;5.17;;;;;;;15.74;49.29;100131.66;1661041;84;21048;-55
2021/09/17 03:25:14;;;;;;;5.67;4.90;;;;;;;15.72;49.26;100131.56;1669327;84;21060;-53
2021/09/17 03:27:43;;;;;;;11.28;4.80;;;;;;;15.74;49.36;100132.19;1669569;84;21131;-54
2021/09/17 03:30:11;;;;;;;5.90;4.47;;;;;;;15.74;49.29;100133.00;1670858;84;21119;-55
2021/09/17 03:32:37;;;;;;;7.35;4.92;;;;;;;15.75;49.36;100121.75;1660614;84;21624;-55
2021/09/17 03:35:06;;;;;;;7.65;4.90;;;;;;;15.76;49.48;100127.40;1677564;84;21008;-55
2021/09/17 03:37:32;;;;;;;7.00;4.47;;;;;;;15.75;49.37;100122.56;1669654;84;21099;-56
2021/09/17 03:39:58;;;;;;;7.83;5.42;;;;;;;15.77;49.03;100116.96;1667680;84;21036;-55
2021/09/17 03:42:27;;;;;;;5.37;4.87;;;;;;;15.78;49.13;100119.12;1668232;84;21147;-50
2021/09/17 03:44:53;;;;;;;7.58;5.12;;;;;;;15.76;49.08;100120.18;1665257;83;21623;-51
2021/09/17 03:47:20;;;;;;;12.55;5.00;;;;;;;15.78;49.18;100112.40;1658071;85;22304;-50
2021/09/17 03:49:46;;;;;;;9.35;4.97;;;;;;;15.78;49.11;100109.17;1665043;85;21121;-49
2021/09/17 03:52:12;;;;;;;6.67;4.60;;;;;;;15.77;48.92;100107.56;1661094;85;21034;-50
2021/09/17 03:54:38;;;;;;;;;;;;;;;15.78;49.04;100105.15;1666461;85;21083;-50
2021/09/17 03:57:05;;;;;;;7.62;5.00;;;;;;;15.75;49.04;100097.56;1685451;83;20196;-51
2021/09/17 03:59:32;;;;;;;13.72;4.95;;;;;;;15.68;49.36;100100.30;1689336;83;22348;-49
2021/09/17 04:02:00;;;;;;;;;;;;;;;15.68;49.36;100093.58;1685934;83;21020;-49
2021/09/17 04:04:27;;;;;;;5.92;4.37;;;;;;;15.70;49.39;100092.02;1682626;83;20189;-50
2021/09/17 04:06:53;;;;;;;6.90;4.28;;;;;;;15.63;49.48;100087.25;1692303;83;21125;-50
2021/09/17 04:09:20;;;;;;;6.92;4.10;;;;;;;15.63;49.44;100087.25;1701306;83;21633;-50
2021/09/17 04:11:48;;;;;;;5.35;4.40;;;;;;;15.66;49.45;100080.09;1697153;80;21061;-50
2021/09/17 04:14:14;;;;;;;8.65;4.60;;;;;;;15.66;49.33;100076.06;1685670;83;21754;-51
2021/09/17 04:16:42;;;;;;;9.58;4.72;;;;;;;15.68;49.41;100074.77;1697659;83;21077;-50
2021/09/17 04:19:08;;;;;;;7.95;4.90;;;;;;;15.66;49.34;100076.87;1697823;83;21022;-50
2021/09/17 04:21:36;;;;;;;5.22;4.30;;;;;;;15.66;49.27;100075.53;1692079;83;20990;-51
2021/09/17 04:24:04;;;;;;;9.03;4.05;;;;;;;15.66;49.33;100068.00;1681534;83;21110;-51
2021/09/17 04:26:30;;;;;;;9.93;4.92;;;;;;;15.66;49.40;100062.09;1680157;85;21087;-51
2021/09/17 04:28:57;;;;;;;;;;;;;;;15.65;49.38;100055.59;1683812;85;21129;-52
2021/09/17 04:31:23;;;;;;;8.70;4.65;;;;;;;15.67;49.33;100051.66;1680830;84;20209;-51
2021/09/17 04:33:49;;;;;;;8.28;3.72;;;;;;;15.63;49.46;100053.14;1683617;84;21086;-51
2021/09/17 04:36:15;;;;;;;8.35;5.05;;;;;;;15.67;49.34;100058.38;1689419;84;21067;-50
2021/09/17 04:38:43;;;;;;;8.55;4.40;;;;;;;15.70;49.34;100055.73;1683468;85;21104;-50
2021/09/17 04:41:09;;;;;;;13.05;4.70;;;;;;;15.66;49.23;100048.66;1685614;85;21178;-49
2021/09/17 04:43:36;;;;;;;9.75;5.42;;;;;;;15.73;49.28;100051.27;1687344;85;21066;-50
2021/09/17 04:46:03;;;;;;;4.35;3.92;;;;;;;15.73;49.26;100048.58;1686811;83;20999;-50
2021/09/17 04:48:30;;;;;;;5.65;4.45;;;;;;;15.74;49.12;100044.86;1689587;84;21112;-49
2021/09/17 04:50:56;;;;;;;10.23;5.33;;;;;;;15.76;49.14;100049.47;1678543;85;21089;-52
2021/09/17 04:53:24;;;;;;;8.60;5.00;;;;;;;15.73;49.24;100057.48;1688766;85;21097;-50
2021/09/17 04:55:52;;;;;;;5.87;4.05;;;;;;;15.75;49.21;100044.63;1687051;82;21006;-50
2021/09/17 04:58:18;;;;;;;6.22;4.75;;;;;;;15.78;49.28;100048.72;1688703;83;21646;-52
2021/09/17 05:00:44;;;;;;;6.25;4.40;;;;;;;15.79;49.20;100045.53;1691762;83;21049;-52
2021/09/17 05:03:11;;;;;;;8.10;4.75;;;;;;;15.82;49.14;100042.36;1685882;83;21567;-50
2021/09/17 05:05:38;;;;;;;8.13;3.77;;;;;;;15.81;49.27;100033.48;1689942;83;21055;-51
2021/09/17 05:08:05;;;;;;;7.53;4.72;;;;;;;15.81;49.24;100044.23;1686856;83;21112;-53
2021/09/17 05:10:31;;;;;;;6.70;4.03;;;;;;;15.82;49.30;100045.86;1646586;85;21607;-49
2021/09/17 05:12:58;;;;;;;11.08;4.92;;;;;;;15.84;49.32;100043.79;1619546;87;21593;-52
2021/09/17 05:15:25;;;;;;;14.93;4.15;;;;;;;15.84;49.09;100051.85;1622362;87;21262;-50
2021/09/17 05:17:52;;;;;;;10.20;5.08;;;;;;;15.86;49.11;100044.88;1636763;87;21658;-53
2021/09/17 05:20:20;;;;;;;8.50;4.78;;;;;;;15.92;49.22;100027.85;1629222;87;21031;-51
2021/09/17 05:22:48;;;;;;;6.72;4.25;;;;;;;15.94;49.37;100029.25;1634249;86;21078;-51
2021/09/17 05:25:14;;;;;;;5.70;4.17;;;;;;;15.94;49.47;100036.50;1651433;86;21094;-51
2021/09/17 05:27:42;;;;;;;7.83;3.90;;;;;;;15.93;49.55;100027.59;1634714;86;21399;-55
2021/09/17 05:30:09;;;;;;;;;;;;;;;15.97;49.63;100019.89;1644742;86;21086;-50
2021/09/17 05:32:37;;;;;;;11.48;4.60;;;;;;;15.99;49.51;100031.76;1646186;86;20205;-49
2021/09/17 05:35:06;;;;;;;8.15;4.70;;;;;;;15.92;49.81;100015.76;1641245;86;21144;-51
2021/09/17 05:37:32;;;;;;;7.15;4.22;;;;;;;15.95;50.00;100016.12;1679877;84;21711;-52
2021/09/17 05:39:59;;;;;;;11.08;5.40;;;;;;;16.02;50.19;100020.02;1680129;84;21094;-50
2021/09/17 05:42:26;;;;;;;8.08;4.17;;;;;;;16.08;49.86;100015.59;1681133;84;21086;-50
2021/09/17 05:44:54;;;;;;;13.13;4.53;;;;;;;16.11;50.13;99997.12;1662374;84;21086;-52
2021/09/17 05:47:21;;;;;;;12.50;4.40;;;;;;;16.14;49.98;100010.62;1640711;85;21428;-52
2021/09/17 05:49:48;;;;;;;;;;;;;;;16.19;50.01;99999.18;1602738;87;21274;-52
2021/09/17 05:52:15;;;;;;;11.90;4.08;;;;;;;16.22;49.82;99987.44;1603080;88;20125;-52
2021/09/17 05:54:41;;;;;;;12.47;4.85;;;;;;;16.22;50.04;100000.88;1623280;87;21055;-55
2021/09/17 05:57:09;;;;;;;10.00;4.03;;;;;;;16.33;50.17;99995.18;1646111;85;21305;-53
2021/09/17 05:59:36;;;;;;;8.10;4.50;;;;;;;16.42;49.79;100001.84;1597563;88;21162;-53
2021/09/17 06:04:45;;;;;;;8.58;3.75;;;;;;;16.62;49.72;99982.66;1808065;78;23257;-52
2021/09/17 06:07:12;;;;;;;;;;;;;;;16.62;49.91;99980.50;1773169;80;21026;-52
2021/09/17 06:09:38;;;;;;;5.72;3.95;;;;;;;16.70;49.69;99989.00;1773775;80;20165;-54
2021/09/17 06:12:07;;;;;;;9.18;4.33;;;;;;;16.76;49.87;99981.84;1730558;78;21133;-52
2021/09/17 06:14:33;;;;;;;7.67;4.05;;;;;;;16.95;49.71;99984.41;1677338;85;21028;-54
2021/09/17 06:17:02;;;;;;;7.50;4.62;;;;;;;17.17;49.37;99981.88;1664505;85;21567;-53
2021/09/17 06:19:28;;;;;;;5.78;3.83;;;;;;;17.36;49.09;99969.03;1669825;85;21605;-58
2021/09/17 06:21:55;;;;;;;9.30;4.12;;;;;;;17.47;49.18;99963.57;1667971;85;21619;-58
2021/09/17 06:24:23;;;;;;;8.83;3.85;;;;;;;17.55;48.99;99961.01;1654727;85;21093;-56
2021/09/17 06:26:49;;;;;;;11.28;3.95;;;;;;;17.62;49.29;99958.98;1651488;85;21076;-53
2021/09/17 06:29:16;;;;;;;4.62;3.60;;;;;;;17.69;49.29;99952.09;1652943;85;21168;-52
2021/09/17 06:31:42;;;;;;;5.55;3.98;;;;;;;17.76;49.60;99955.42;1654794;85;21081;-51
2021/09/17 06:34:08;;;;;;;10.45;4.28;;;;;;;17.80;49.76;99954.40;1654924;85;21085;-53
2021/09/17 06:36:34;;;;;;;7.85;4.10;;;;;;;17.84;49.81;99947.48;1660340;85;21084;-53
2021/09/17 06:39:03;;;;;;;18.05;5.20;;;;;;;17.88;49.85;99950.00;1667275;85;21025;-52
2021/09/17 06:41:32;;;;;;;7.60;4.03;;;;;;;17.89;50.21;99948.41;1665446;85;21101;-52
2021/09/17 06:43:58;;;;;;;5.15;3.87;;;;;;;17.89;50.21;99948.41;1662267;85;21136;-52
2021/09/17 06:46:25;;;;;;;8.23;5.30;;;;;;;17.95;50.54;99960.09;1665881;84;21075;-52
2021/09/17 06:48:51;;;;;;;11.35;4.25;;;;;;;17.95;50.61;99934.47;1664325;84;22325;-53
2021/09/17 06:51:19;;;;;;;6.40;3.67;;;;;;;18.07;50.45;99929.78;1665469;84;21091;-51
2021/09/17 06:53:45;;;;;;;15.83;4.37;;;;;;;18.16;50.68;99942.83;1666466;84;21115;-53
2021/09/17 06:56:12;;;;;;;;;;;;;;;18.24;50.66;99946.47;1667644;82;21061;-51
2021/09/17 06:58:40;;;;;;;8.33;3.87;;;;;;;18.34;50.51;99939.05;1666716;84;21008;-52
2021/09/17 07:01:06;;;;;;;6.12;3.92;;;;;;;18.38;50.67;99942.33;1670627;84;21052;-51
2021/09/17 07:03:32;;;;;;;10.08;4.10;;;;;;;18.52;50.78;99941.99;1647115;85;21114;-50
2021/09/17 07:05:58;;;;;;;10.05;4.28;;;;;;;18.65;50.77;99950.52;1646471;85;21054;-52
2021/09/17 07:08:25;;;;;;;10.30;4.22;;;;;;;18.77;50.92;99937.43;1621651;87;21020;-53
2021/09/17 07:10:53;;;;;;;7.20;4.80;;;;;;;18.81;50.96;99943.44;1664028;84;21129;-51
2021/09/17 07:13:20;;;;;;;8.18;4.25;;;;;;;18.79;51.37;99942.84;1621969;85;21191;-51
2021/09/17 07:15:47;;;;;;;8.45;4.90;;;;;;;18.82;51.35;99934.83;1610657;87;21066;-52
2021/09/17 07:18:15;;;;;;;8.58;4.42;;;;;;;18.88;51.28;99922.20;1600994;88;21629;-52
2021/09/17 07:20:42;;;;;;;8.10;4.15;;;;;;;18.95;51.14;99934.95;1618601;87;21103;-53
2021/09/17 07:23:11;;;;;;;10.58;4.42;;;;;;;18.93;51.38;99929.82;1643476;84;21093;-51
2021/09/17 07:25:38;;;;;;;7.17;5.03;;;;;;;18.91;51.57;99925.21;1689577;84;21161;-51
2021/09/17 07:28:05;;;;;;;9.83;5.33;;;;;;;18.91;51.79;99928.42;1686226;84;21592;-53
2021/09/17 07:30:32;;;;;;;8.68;5.42;;;;;;;18.94;52.35;99927.92;1679686;84;21019;-50
2021/09/17 07:32:59;;;;;;;12.47;5.30;;;;;;;18.96;51.96;99919.84;1685111;83;21170;-52
2021/09/17 07:35:27;;;;;;;11.65;4.60;;;;;;;18.99;51.80;99925.29;1655331;84;21627;-51
2021/09/17 07:37:53;;;;;;;20.92;5.72;;;;;;;18.98;51.92;99915.55;1650251;85;21142;-52
2021/09/17 07:40:19;;;;;;;;;;;;;;;18.97;52.18;99924.19;1661760;84;21138;-52
2021/09/17 07:42:47;;;;;;;13.05;5.60;;;;;;;18.98;52.31;99914.19;1652454;85;20162;-52
2021/09/17 07:45:16;;;;;;;11.80;5.45;;;;;;;18.93;52.77;99920.88;1679957;83;21074;-51
2021/09/17 07:47:44;;;;;;;7.65;4.80;;;;;;;18.94;52.82;99912.53;1703519;83;21243;-52
2021/09/17 07:50:13;;;;;;;8.13;5.03;;;;;;;18.99;52.95;99913.14;1705944;83;21126;-51
2021/09/17 07:52:41;;;;;;;8.45;5.17;;;;;;;19.04;52.87;99911.81;1639789;85;21192;-52
2021/09/17 07:55:09;;;;;;;8.05;5.37;;;;;;;19.08;53.04;99907.56;1675552;85;21534;-50
2021/09/17 07:57:38;;;;;;;9.58;5.58;;;;;;;19.13;53.14;99906.23;1641698;85;21097;-51
2021/09/17 08:00:07;;;;;;;12.07;4.53;;;;;;;19.19;53.08;99903.05;1677620;85;21023;-52
2021/09/17 08:02:35;;;;;;;5.85;4.60;;;;;;;19.21;53.10;99900.91;1636887;86;21616;-52
2021/09/17 08:05:02;;;;;;;7.67;4.85;;;;;;;19.24;53.28;99897.70;1652747;85;21042;-52
2021/09/17 08:07:30;;;;;;;8.63;5.17;;;;;;;19.22;53.34;99900.66;1648891;85;21110;-50
2021/09/17 08:09:56;;;;;;;;;;;;;;;19.17;53.78;99908.70;1656156;85;21443;-53
2021/09/17 08:12:24;;;;;;;8.50;4.90;;;;;;;19.14;53.91;99901.13;1624979;85;20157;-52
2021/09/17 08:14:50;;;;;;;11.57;6.10;;;;;;;19.09;54.22;99893.52;1632666;85;21074;-50
2021/09/17 08:17:18;;;;;;;9.35;5.00;;;;;;;19.09;54.43;99885.41;1632862;85;21054;-53
2021/09/17 08:19:48;;;;;;;12.88;5.72;;;;;;;19.08;54.60;99887.30;1641215;86;21038;-54
2021/09/17 08:22:15;;;;;;;13.13;5.17;;;;;;;19.08;54.87;99877.84;1659498;86;21081;-53
2021/09/17 08:24:41;;;;;;;7.65;5.40;;;;;;;19.09;54.96;99876.77;1624729;87;21026;-51
2021/09/17 08:27:07;;;;;;;;;;;;;;;19.09;55.30;99875.41;1646579;86;21066;-51
2021/09/17 08:29:33;;;;;;;8.35;5.60;;;;;;;19.14;55.37;99875.47;1636008;86;20155;-51
2021/09/17 08:32:01;;;;;;;7.92;5.75;;;;;;;19.11;55.55;99863.81;1638152;87;21090;-52
2021/09/17 08:34:28;;;;;;;16.40;6.25;;;;;;;19.14;55.71;99864.66;1642674;86;21121;-52
2021/09/17 08:36:57;;;;;;;9.08;4.70;;;;;;;19.17;55.75;99865.48;1633375;86;21062;-52
2021/09/17 08:39:23;;;;;;;9.70;5.25;;;;;;;19.21;55.79;99859.87;1638676;86;21022;-52
2021/09/17 08:41:50;;;;;;;7.35;4.87;;;;;;;19.26;55.82;99856.37;1636512;86;21169;-53
2021/09/17 08:44:17;;;;;;;10.48;5.97;;;;;;;19.28;55.97;99852.88;1641381;86;21101;-51
2021/09/17 08:46:43;;;;;;;10.45;5.28;;;;;;;19.30;56.15;99853.98;1639289;87;21058;-52
2021/09/17 08:49:11;;;;;;;9.93;5.22;;;;;;;19.32;56.23;99853.19;1640672;86;21172;-52
2021/09/17 08:51:39;;;;;;;6.20;5.62;;;;;;;19.36;56.20;99852.94;1644325;86;21157;-53
2021/09/17 08:54:06;;;;;;;9.73;5.60;;;;;;;19.38;56.22;99850.27;1641267;87;21555;-52
2021/09/17 08:56:34;;;;;;;11.80;5.62;;;;;;;19.39;56.47;99850.54;1653423;86;21145;-52
2021/09/17 08:59:01;;;;;;;8.83;5.75;;;;;;;19.41;56.47;99844.88;1667216;86;21054;-52
2021/09/17 09:01:31;;;;;;;7.00;5.30;;;;;;;19.38;56.74;99844.03;1651884;86;21175;-51
2021/09/17 09:04:02;;;;;;;6.45;4.55;;;;;;;19.42;56.68;99846.49;1641070;86;21117;-52
2021/09/17 09:06:36;;;;;;;5.90;4.72;;;;;;;19.40;56.95;99848.13;1642891;86;21843;-52
2021/09/17 09:09:15;;;;;;;7.25;5.70;;;;;;;19.41;57.10;99848.39;1633715;86;22273;-53
2021/09/17 09:11:52;;;;;;;11.65;5.47;;;;;;;19.45;57.08;99845.98;1646443;86;21094;-53
2021/09/17 09:14:21;;;;;;;14.73;6.45;;;;;;;19.49;57.23;99848.98;1651696;85;21173;-54
2021/09/17 09:16:53;;;;;;;10.95;6.60;;;;;;;19.51;57.17;99848.19;1656402;86;21043;-52
2021/09/17 09:19:27;;;;;;;9.45;6.85;;;;;;;19.53;57.24;99835.23;1654827;86;21553;-51
2021/09/17 09:22:08;;;;;;;9.53;6.00;;;;;;;19.58;57.29;99840.67;1655673;86;21126;-52
2021/09/17 09:24:42;;;;;;;16.17;6.62;;;;;;;19.61;57.15;99836.11;1651011;86;21034;-52
2021/09/17 09:27:19;;;;;;;18.25;6.87;;;;;;;19.64;57.29;99828.81;1656517;86;21159;-52
2021/09/17 09:29:52;;;;;;;15.13;6.40;;;;;;;19.64;57.53;99825.56;1655889;85;21058;-52
2021/09/17 09:32:34;;;;;;;6.87;6.12;;;;;;;19.67;57.40;99817.48;1658994;86;21086;-50
2021/09/17 09:35:09;;;;;;;8.95;6.05;;;;;;;19.70;57.56;99823.70;1658184;86;20999;-49
2021/09/17 09:37:39;;;;;;;8.30;6.03;;;;;;;19.71;57.63;99824.55;1648734;85;21095;-51
2021/09/17 09:40:12;;;;;;;13.22;7.03;;;;;;;19.72;57.67;99813.98;1650972;85;21168;-51
2021/09/17 09:42:44;;;;;;;9.65;5.90;;;;;;;19.77;57.58;99815.41;1644641;85;22118;-52
2021/09/17 09:45:18;;;;;;;12.15;6.10;;;;;;;19.82;57.62;99810.03;1653371;86;21066;-52
2021/09/17 09:47:52;;;;;;;11.45;6.00;;;;;;;19.89;57.58;99802.50;1650190;85;21079;-53
2021/09/17 09:50:28;;;;;;;9.20;6.50;;;;;;;19.95;57.58;99810.91;1645052;85;21082;-52
2021/09/17 09:52:59;;;;;;;;;;;;;;;20.02;57.39;99805.25;1657736;86;21094;-51
2021/09/17 09:55:28;;;;;;;15.35;6.00;;;;;;;20.10;57.42;99806.11;1656742;85;20203;-52
2021/09/17 09:57:56;;;;;;;11.60;6.97;;;;;;;20.13;57.41;99800.16;1659233;86;21142;-52
2021/09/17 10:00:24;;;;;;;8.58;6.67;;;;;;;20.21;57.23;99789.36;1636577;85;21608;-54
2021/09/17 10:02:51;;;;;;;15.28;7.62;;;;;;;20.26;57.26;99788.03;1638674;86;21141;-52
2021/09/17 10:05:25;;;;;;;11.57;7.10;;;;;;;20.30;57.14;99789.12;1638022;86;21701;-53
2021/09/17 10:07:50;;;;;;;9.23;6.50;;;;;;;19.96;57.18;99721.91;1641318;86;21104;-52
2021/09/17 10:10:16;;;;;;;14.85;8.03;;;;;;;20.41;57.08;99782.65;1639530;86;21086;-50
2021/09/17 10:12:46;;;;;;;12.40;7.37;;;;;;;20.46;57.04;99778.36;1641888;86;21131;-53
2021/09/17 10:15:15;;;;;;;12.75;7.67;;;;;;;20.53;56.91;99778.88;1645405;86;21022;-51
2021/09/17 10:17:49;;;;;;;10.30;7.22;;;;;;;20.57;56.92;99779.45;1645621;86;22169;-52
2021/09/17 10:20:15;;;;;;;17.85;7.67;;;;;;;20.63;56.82;99774.08;1651209;85;22200;-52
2021/09/17 10:22:46;;;;;;;;;;;;;;;20.67;56.69;99774.62;1669027;85;21089;-52
2021/09/17 10:25:22;;;;;;;7.05;6.28;;;;;;;20.69;56.54;99767.03;1650917;85;20403;-53
2021/09/17 10:28:11;;;;;;;10.08;5.95;;;;;;;20.69;56.59;99762.17;1639112;85;21037;-53
2021/09/17 10:30:42;;;;;;;7.28;5.40;;;;;;;20.73;56.51;99764.61;1651525;85;21070;-52
2021/09/17 10:33:25;;;;;;;10.68;5.08;;;;;;;20.80;56.22;99752.97;1663556;85;21184;-52
2021/09/17 10:35:54;;;;;;;6.70;5.75;;;;;;;20.85;56.19;99750.27;1607549;87;21138;-55
2021/09/17 10:38:32;;;;;;;12.30;5.87;;;;;;;20.92;56.08;99758.11;1640039;86;21066;-52
2021/09/17 10:41:05;;;;;;;11.08;5.55;;;;;;;20.97;55.83;99748.64;1639677;84;84637;-80
2021/09/17 10:43:49;;;;;;;7.22;5.05;;;;;;;21.06;55.71;99743.47;1617055;87;21398;-84
2021/09/17 10:46:31;;;;;;;8.20;4.87;;;;;;;21.13;55.54;99742.65;1638056;85;21065;-82
2021/09/17 10:48:58;;;;;;;6.45;5.53;;;;;;;21.20;55.31;99750.77;1644675;85;21260;-81
2021/09/17 10:51:35;;;;;;;8.88;5.35;;;;;;;21.27;55.26;99747.79;1645965;85;21124;-85
2021/09/17 10:54:11;;;;;;;7.97;4.42;;;;;;;20.82;54.99;99668.20;1646592;85;21105;-85
2021/09/17 10:57:00;;;;;;;13.35;5.72;;;;;;;21.40;54.85;99751.84;1646501;85;21358;-84
2021/09/17 10:59:42;;;;;;;7.42;5.12;;;;;;;21.46;54.86;99739.91;1648012;85;21105;-85
2021/09/17 11:02:10;;;;;;;5.70;4.70;;;;;;;21.48;54.75;99743.16;1646031;85;21041;-83
2021/09/17 11:04:44;;;;;;;10.23;5.12;;;;;;;21.51;54.63;99745.86;1651912;85;21085;-83
2021/09/17 11:07:26;;;;;;;13.25;6.17;;;;;;;21.52;54.07;99746.94;1637328;86;21122;-84
2021/09/17 11:09:56;;;;;;;8.53;4.70;;;;;;;21.53;53.77;99739.09;1615780;87;21638;-82
2021/09/17 11:12:29;;;;;;;11.60;5.40;;;;;;;21.53;53.58;99731.48;1628059;87;21574;-84
2021/09/17 11:15:20;;;;;;;5.20;4.42;;;;;;;21.54;53.49;99733.11;1642013;86;21018;-85
2021/09/17 11:18:08;;;;;;;6.17;4.65;;;;;;;21.57;53.30;99725.80;1676349;85;21108;-84
2021/09/17 11:20:29;;;;;;;10.25;5.37;;;;;;;21.58;52.83;99713.29;1660041;85;21959;-85
2021/09/17 11:23:05;;;;;;;9.00;4.60;;;;;;;21.64;52.75;99722.77;1664856;85;21085;-83
2021/09/17 11:25:38;;;;;;;6.85;4.42;;;;;;;21.64;52.52;99704.59;1656557;85;21549;-83
2021/09/17 11:28:10;;;;;;;8.88;4.62;;;;;;;21.65;52.55;99702.72;1633368;86;21095;-82
2021/09/17 11:30:36;;;;;;;6.72;4.53;;;;;;;21.67;52.25;99700.53;1643299;85;21040;-86
2021/09/17 11:33:18;;;;;;;10.35;4.80;;;;;;;21.70;52.17;99697.25;1623004;87;21054;-85
2021/09/17 11:35:45;;;;;;;5.70;4.62;;;;;;;21.46;51.86;99643.67;1607862;87;21059;-84
2021/09/17 11:38:12;;;;;;;7.83;4.62;;;;;;;21.77;51.83;99699.13;1643972;85;21531;-86
2021/09/17 11:40:54;;;;;;;5.05;4.40;;;;;;;21.80;51.67;99694.51;1636294;85;21079;-84